Monday, December 17, 2018, 11:09 AM GMT
Back to Local

CYWA, Petawawa, Ont.

Location: , , Canada Lat: 45.95
Local Time: 11:09 AM GMT (11:09 GMT) Lon: -77.317
Time Zone: GMT Elev: 426 ft

Show me the last for .
Show Coded

Time T Td Feel RH Dir Speed Gust Alt SLP Vis Weather Sky Remarks
2018-12-17 10:31 28 27 - 92 260° 2 - 29.69 - 9 OVC014 OVC029 None
2018-12-17 10:00 28 27 - 92 300° 2 - 29.69 29.71 9 OVC018 None
2018-12-17 09:29 28 27 - 92 - Calm - 29.69 - 9 OVC022 None
2018-12-17 09:14 28 27 - 92 - Calm - 29.69 - 9 OVC026 None
2018-12-17 09:00 28 27 - 92 140° 2 - 29.69 29.72 9 OVC020 None
2018-12-17 08:00 27 25 - 92 190° 2 - 29.73 29.75 9 OVC016 None
2018-12-17 07:39 27 25 20 92 180° 6 - 29.75 - 9 OVC016 None
2018-12-17 07:00 27 25 - 92 - Calm - 29.76 29.79 9 OVC013 None
2018-12-17 06:00 27 25 20 92 140° 6 - 29.77 29.80 8 FEW003 OVC013 None
2018-12-17 05:50 27 27 21 100 150° 5 - 29.78 - 8 SCT004 OVC013 None
2018-12-17 05:30 27 27 20 100 150° 6 - 29.78 - 9 OVC003 OVC015 None
2018-12-17 05:00 28 27 20 92 130° 9 - 29.78 29.80 9 OVC004 None
2018-12-17 04:32 28 27 22 92 140° 6 - 29.81 - 9 OVC004 None
2018-12-17 04:19 28 27 22 92 150° 6 - 29.81 - 9 BKN005 None
2018-12-17 04:00 28 27 23 92 140° 5 - 29.82 29.85 9 FEW006 None
2018-12-17 03:00 28 27 21 92 130° 7 - 29.84 29.87 9 CLR None
2018-12-17 02:00 30 27 24 86 120° 6 - 29.88 29.91 9 CLR None
2018-12-17 01:00 30 27 25 86 150° 5 - 29.91 29.94 9 CLR None
2018-12-17 00:00 30 27 25 86 140° 5 - 29.93 29.96 9 CLR None
2018-12-16 23:00 30 27 23 86 130° 8 - 29.94 29.97 9 CLR None
2018-12-16 22:00 32 27 26 80 130° 7 - 29.96 29.99 9 CLR None
2018-12-16 21:00 32 27 29 80 140° 3 - 29.99 30.02 9 CLR None
2018-12-16 20:00 32 27 27 80 140° 5 - 30.00 30.03 9 FEW091 None
2018-12-16 19:00 30 27 25 86 120° 5 - 30.01 30.03 9 CLR None
2018-12-16 18:00 30 28 24 92 130° 6 - 30.04 30.06 9 CLR None
2018-12-16 17:00 27 25 - 92 - Calm - 30.07 30.10 9 CLR None
2018-12-16 16:00 23 23 - 100 - Calm - 30.12 30.14 9 FEW089 FEW098 None
2018-12-16 15:00 18 16 - 92 260° 2 - 30.14 30.17 9 CLR None
2018-12-16 14:00 14 14 - 100 - Calm - 30.18 30.21 9 CLR None
2018-12-16 13:00 12 10 - 92 250° 2 - 30.19 30.22 9 CLR None
2018-12-16 12:00 12 10 - 92 - Calm - 30.21 30.24 9 CLR None

Support USWX by starting your Amazon purchase here.